createdAt,value
2019-06-26T00:01:39.892Z,94.70
2019-06-26T00:04:06.024Z,94.90
2019-06-26T00:06:32.100Z,95.10
2019-06-26T00:08:58.147Z,95.30
2019-06-26T00:11:24.199Z,95.50
2019-06-26T00:13:50.288Z,95.60
2019-06-26T00:16:16.370Z,95.80
2019-06-26T00:18:42.537Z,96.00
2019-06-26T00:21:08.610Z,96.10
2019-06-26T00:23:34.768Z,96.30
2019-06-26T00:26:00.841Z,96.40
2019-06-26T00:28:26.985Z,96.50
2019-06-26T00:30:53.048Z,96.60
2019-06-26T00:33:19.200Z,96.70
2019-06-26T00:35:45.322Z,97.10
2019-06-26T00:38:11.408Z,97.00
2019-06-26T00:40:37.467Z,97.00
2019-06-26T00:43:03.524Z,97.50
2019-06-26T00:45:29.603Z,97.30
2019-06-26T00:47:55.687Z,97.40
2019-06-26T00:50:21.749Z,97.40
2019-06-26T00:52:48.491Z,97.50
2019-06-26T00:55:14.560Z,97.50
2019-06-26T00:57:40.716Z,97.60
2019-06-26T01:00:09.246Z,97.50
2019-06-26T01:02:35.617Z,97.60
2019-06-26T01:05:04.072Z,97.60
2019-06-26T01:07:30.244Z,97.70
2019-06-26T01:09:56.313Z,97.80
2019-06-26T01:12:22.567Z,97.80
2019-06-26T01:14:48.638Z,97.90
2019-06-26T01:17:14.699Z,98.00
2019-06-26T01:19:40.840Z,98.00
2019-06-26T01:22:06.899Z,97.90
2019-06-26T01:24:33.295Z,98.00
2019-06-26T01:26:59.715Z,98.00
2019-06-26T01:29:25.856Z,98.00
2019-06-26T01:31:51.912Z,98.10
2019-06-26T01:34:17.997Z,98.10
2019-06-26T01:36:44.075Z,98.10
2019-06-26T01:39:10.163Z,98.20
2019-06-26T01:41:36.496Z,98.30
2019-06-26T01:44:14.413Z,98.40
2019-06-26T01:46:31.330Z,98.30
2019-06-26T01:48:57.376Z,98.40
2019-06-26T01:51:23.436Z,98.50
2019-06-26T01:53:49.483Z,98.50
2019-06-26T01:56:15.663Z,98.60
2019-06-26T01:58:41.721Z,98.50
2019-06-26T02:01:07.774Z,98.30
2019-06-26T02:03:33.862Z,98.70
2019-06-26T02:05:59.913Z,98.70
2019-06-26T02:08:25.976Z,98.80
2019-06-26T02:10:52.036Z,98.80
2019-06-26T02:13:18.221Z,98.80
2019-06-26T02:15:44.394Z,98.80
2019-06-26T02:18:29.183Z,98.80
2019-06-26T02:20:55.291Z,98.90
2019-06-26T02:23:21.435Z,99.00
2019-06-26T02:25:47.500Z,99.00
2019-06-26T02:28:13.554Z,99.10
2019-06-26T02:30:39.611Z,99.10
2019-06-26T02:33:05.772Z,99.00
2019-06-26T02:35:31.843Z,99.00
2019-06-26T02:37:57.951Z,99.10
2019-06-26T02:40:24.297Z,99.10
2019-06-26T02:42:50.367Z,99.10
2019-06-26T02:45:16.626Z,99.20
2019-06-26T02:47:42.694Z,99.30
2019-06-26T02:50:09.562Z,99.30
2019-06-26T02:52:35.939Z,99.30
2019-06-26T02:55:04.215Z,99.30
2019-06-26T02:57:30.304Z,99.40
2019-06-26T02:59:56.355Z,99.40
2019-06-26T03:02:22.413Z,99.40
2019-06-26T03:04:48.516Z,99.40
2019-06-26T03:07:14.663Z,99.40
2019-06-26T03:09:40.719Z,99.40
2019-06-26T03:12:06.767Z,99.50
2019-06-26T03:14:32.999Z,99.60
2019-06-26T03:16:59.047Z,99.70
2019-06-26T03:19:25.123Z,99.80
2019-06-26T03:21:51.168Z,99.80
2019-06-26T03:24:17.219Z,99.80
2019-06-26T03:26:43.302Z,99.90
2019-06-26T03:29:09.359Z,99.90
2019-06-26T03:31:35.423Z,99.90
2019-06-26T03:34:01.544Z,99.90
2019-06-26T03:36:27.610Z,99.90
2019-06-26T03:38:53.655Z,99.90
2019-06-26T03:41:19.763Z,99.90
2019-06-26T03:43:45.820Z,99.90
2019-06-26T03:46:11.971Z,99.90
2019-06-26T03:48:38.028Z,99.90
2019-06-26T03:51:04.088Z,99.90
2019-06-26T03:53:30.151Z,99.90
2019-06-26T03:55:56.203Z,99.90
2019-06-26T03:58:22.415Z,99.90
2019-06-26T04:00:48.837Z,99.90
2019-06-26T04:03:15.263Z,99.90
2019-06-26T04:05:41.474Z,99.90
2019-06-26T04:08:07.566Z,99.90
2019-06-26T04:10:34.523Z,99.90
2019-06-26T04:13:00.587Z,99.90
2019-06-26T04:15:40.963Z,99.80
2019-06-26T04:17:54.593Z,99.70
2019-06-26T04:20:20.738Z,99.60
2019-06-26T04:22:47.740Z,99.50
2019-06-26T04:25:14.292Z,99.40
2019-06-26T04:27:40.343Z,99.20
2019-06-26T04:30:09.941Z,99.00
2019-06-26T04:32:36.448Z,98.80
2019-06-26T04:35:03.873Z,98.60
2019-06-26T04:37:30.112Z,98.40
2019-06-26T04:39:56.179Z,98.30
2019-06-26T04:42:22.343Z,98.00
2019-06-26T04:44:48.389Z,97.80
2019-06-26T04:47:14.448Z,97.60
2019-06-26T04:49:40.508Z,97.30
2019-06-26T04:52:06.593Z,97.00
2019-06-26T04:54:32.666Z,96.30
2019-06-26T04:56:58.742Z,95.70
2019-06-26T04:59:24.822Z,94.90
2019-06-26T05:01:50.891Z,94.20
2019-06-26T05:04:17.046Z,93.80
2019-06-26T05:06:43.132Z,93.30
2019-06-26T05:09:09.307Z,92.70
2019-06-26T05:11:35.395Z,92.10
2019-06-26T05:14:01.532Z,91.70
2019-06-26T05:16:27.651Z,91.70
2019-06-26T05:18:53.811Z,91.10
2019-06-26T05:21:19.883Z,90.60
2019-06-26T05:23:45.932Z,90.30
2019-06-26T05:26:11.990Z,89.10
2019-06-26T05:28:38.063Z,87.70
2019-06-26T05:31:04.139Z,86.70
2019-06-26T05:33:30.292Z,85.40
2019-06-26T05:35:56.359Z,83.80
2019-06-26T05:38:22.447Z,81.80
2019-06-26T05:40:48.499Z,79.10
2019-06-26T05:43:14.549Z,76.90
2019-06-26T05:45:40.617Z,75.00
2019-06-26T05:48:06.759Z,74.20
2019-06-26T05:50:32.827Z,73.10
2019-06-26T05:52:58.922Z,71.10
2019-06-26T05:55:25.187Z,70.20
2019-06-26T05:57:51.230Z,69.20
2019-06-26T06:00:17.900Z,68.90
2019-06-26T06:02:43.988Z,65.90
2019-06-26T06:05:10.566Z,66.00
2019-06-26T06:07:36.746Z,65.40
2019-06-26T06:10:06.600Z,64.20
2019-06-26T06:12:32.654Z,62.20
2019-06-26T06:14:58.714Z,62.60
2019-06-26T06:17:24.908Z,63.00
2019-06-26T06:19:51.087Z,63.30
2019-06-26T06:22:17.244Z,63.80
2019-06-26T06:24:43.296Z,63.50
2019-06-26T06:27:09.350Z,64.40
2019-06-26T06:29:35.402Z,65.30
2019-06-26T06:32:01.473Z,65.10
2019-06-26T06:34:27.566Z,65.00
2019-06-26T06:36:53.676Z,63.70
2019-06-26T06:39:19.731Z,63.10
2019-06-26T06:41:45.838Z,63.40
2019-06-26T06:44:11.886Z,64.60
2019-06-26T06:46:37.954Z,64.10
2019-06-26T06:49:04.037Z,64.10
2019-06-26T06:51:30.102Z,64.00
2019-06-26T06:53:56.259Z,64.00
2019-06-26T06:56:22.430Z,64.40
2019-06-26T06:58:48.498Z,64.10
2019-06-26T07:01:15.158Z,63.90
2019-06-26T07:03:41.222Z,64.40
2019-06-26T07:06:07.275Z,62.60
2019-06-26T07:08:33.341Z,63.70
2019-06-26T07:10:59.595Z,64.80
2019-06-26T07:13:25.664Z,65.30
2019-06-26T07:15:51.816Z,65.00
2019-06-26T07:18:17.877Z,64.50
2019-06-26T07:20:44.839Z,64.60
2019-06-26T07:23:11.056Z,64.60
2019-06-26T07:25:37.339Z,65.00
2019-06-26T07:28:03.420Z,66.30
2019-06-26T07:30:29.542Z,67.20
2019-06-26T07:32:55.624Z,67.10
2019-06-26T07:35:21.780Z,66.20
2019-06-26T07:37:48.054Z,66.70
2019-06-26T07:40:14.916Z,66.80
2019-06-26T07:42:40.973Z,65.60
2019-06-26T07:45:07.519Z,66.10
2019-06-26T07:47:42.984Z,65.90
2019-06-26T07:50:02.014Z,65.80
2019-06-26T07:52:28.196Z,65.60
2019-06-26T07:54:54.242Z,65.80
2019-06-26T07:57:20.767Z,65.70
2019-06-26T07:59:46.979Z,65.90
2019-06-26T08:02:13.142Z,65.60
2019-06-26T08:04:39.268Z,65.80
2019-06-26T08:07:05.319Z,65.60
2019-06-26T08:09:31.375Z,65.70
2019-06-26T08:11:57.440Z,65.00
2019-06-26T08:14:23.489Z,65.80
2019-06-26T08:16:49.689Z,65.70
2019-06-26T08:19:15.938Z,66.30
2019-06-26T08:21:42.074Z,66.40
2019-06-26T08:24:08.128Z,66.80
2019-06-26T08:26:34.184Z,66.70
2019-06-26T08:29:00.239Z,67.70
2019-06-26T08:31:26.282Z,66.90
2019-06-26T08:33:52.352Z,67.10
2019-06-26T08:36:18.416Z,67.20
2019-06-26T08:38:44.465Z,67.20
2019-06-26T08:41:10.619Z,66.30
2019-06-26T08:43:36.671Z,66.90
2019-06-26T08:46:02.743Z,66.30
2019-06-26T08:48:39.768Z,66.10
2019-06-26T08:50:56.778Z,66.40
2019-06-26T08:53:22.835Z,66.30
2019-06-26T08:55:48.910Z,65.90
2019-06-26T08:58:14.996Z,65.90
2019-06-26T09:00:41.897Z,67.60
2019-06-26T09:03:07.985Z,65.90
2019-06-26T09:05:47.699Z,67.30
2019-06-26T09:08:02.149Z,66.60
2019-06-26T09:10:28.343Z,65.50
2019-06-26T09:12:54.387Z,66.10
2019-06-26T09:15:20.468Z,65.80
2019-06-26T09:17:46.526Z,65.70
2019-06-26T09:20:16.383Z,65.40
2019-06-26T09:22:42.492Z,65.70
2019-06-26T09:25:21.040Z,65.50
2019-06-26T09:27:36.777Z,66.00
2019-06-26T09:30:06.824Z,66.20
2019-06-26T09:32:32.958Z,65.70
2019-06-26T09:34:59.016Z,65.40
2019-06-26T09:37:25.062Z,65.00
2019-06-26T09:39:51.124Z,65.40
2019-06-26T09:42:19.743Z,65.50
2019-06-26T09:44:45.155Z,65.50
2019-06-26T09:47:11.212Z,64.60
2019-06-26T09:49:37.264Z,62.90
2019-06-26T09:52:03.460Z,63.20
2019-06-26T09:54:29.523Z,62.40
2019-06-26T09:56:55.583Z,61.00
2019-06-26T09:59:21.635Z,60.40
2019-06-26T10:01:47.718Z,60.40
2019-06-26T10:04:13.881Z,61.80
2019-06-26T10:06:40.062Z,60.10
2019-06-26T10:09:07.142Z,60.10
2019-06-26T10:11:33.312Z,60.80
2019-06-26T10:13:59.384Z,59.80
2019-06-26T10:16:25.498Z,60.20
2019-06-26T10:19:05.575Z,60.20
2019-06-26T10:21:23.414Z,59.70
2019-06-26T10:23:47.487Z,60.00
2019-06-26T10:26:13.540Z,61.60
2019-06-26T10:28:39.798Z,62.20
2019-06-26T10:31:05.855Z,62.40
2019-06-26T10:33:31.914Z,61.80
2019-06-26T10:35:57.972Z,61.60
2019-06-26T10:38:43.955Z,61.80
2019-06-26T10:41:10.091Z,61.40
2019-06-26T10:43:36.150Z,60.60
2019-06-26T10:46:03.206Z,59.40
2019-06-26T10:48:29.273Z,61.50
2019-06-26T10:50:58.743Z,61.50
2019-06-26T10:53:23.261Z,60.70
2019-06-26T10:55:49.420Z,61.40
2019-06-26T10:58:15.570Z,61.20
2019-06-26T11:00:41.767Z,61.30
2019-06-26T11:03:07.823Z,60.70
2019-06-26T11:05:33.865Z,60.00
2019-06-26T11:07:59.919Z,60.60
2019-06-26T11:10:26.189Z,61.10
2019-06-26T11:12:52.234Z,61.50
2019-06-26T11:15:19.908Z,62.00
2019-06-26T11:17:46.063Z,61.90
2019-06-26T11:20:12.535Z,61.80
2019-06-26T11:22:38.619Z,59.90
2019-06-26T11:25:05.820Z,59.40
2019-06-26T11:27:31.975Z,59.40
2019-06-26T11:29:58.025Z,59.70
2019-06-26T11:32:24.086Z,61.50
2019-06-26T11:34:50.127Z,60.30
2019-06-26T11:37:16.191Z,61.50
2019-06-26T11:39:42.246Z,60.30
2019-06-26T11:42:08.324Z,61.60
2019-06-26T11:44:34.497Z,61.10
2019-06-26T11:47:00.548Z,61.20
2019-06-26T11:49:26.633Z,61.80
2019-06-26T11:51:52.800Z,59.50
2019-06-26T11:54:18.998Z,59.60
2019-06-26T11:56:45.039Z,58.90
2019-06-26T11:59:11.103Z,59.00
2019-06-26T12:01:37.146Z,60.40
2019-06-26T12:04:03.338Z,59.70
2019-06-26T12:06:29.518Z,60.10
2019-06-26T12:08:55.659Z,62.50
2019-06-26T12:11:21.739Z,61.60
2019-06-26T12:13:47.791Z,61.30
2019-06-26T12:16:13.863Z,62.40
2019-06-26T12:18:39.931Z,62.80
2019-06-26T12:21:05.979Z,63.10
2019-06-26T12:23:32.027Z,64.40
2019-06-26T12:25:58.187Z,64.80
2019-06-26T12:28:24.367Z,64.20
2019-06-26T12:30:50.434Z,63.40
2019-06-26T12:33:16.503Z,64.20
2019-06-26T12:35:42.680Z,65.60
2019-06-26T12:38:08.826Z,67.00
2019-06-26T12:40:34.879Z,66.90
2019-06-26T12:43:00.978Z,67.50
2019-06-26T12:45:27.037Z,67.70
2019-06-26T12:51:17.414Z,68.20
2019-06-26T12:53:43.940Z,68.10
2019-06-26T12:56:10.083Z,68.00
2019-06-26T12:58:36.143Z,68.70
2019-06-26T13:01:02.327Z,69.30
2019-06-26T13:03:28.384Z,68.80
2019-06-26T13:05:54.462Z,68.50
2019-06-26T13:08:20.527Z,68.90
2019-06-26T13:10:50.152Z,69.10
2019-06-26T13:13:14.687Z,68.70
2019-06-26T13:15:40.756Z,68.60
2019-06-26T13:18:06.812Z,68.20
2019-06-26T13:20:32.868Z,68.70
2019-06-26T13:22:59.018Z,67.60
2019-06-26T13:25:25.062Z,68.10
2019-06-26T13:27:51.425Z,68.60
2019-06-26T13:30:24.111Z,70.70
2019-06-26T13:32:50.252Z,70.30
2019-06-26T13:35:16.307Z,69.30
2019-06-26T13:37:42.371Z,68.70
2019-06-26T13:40:08.855Z,67.40
2019-06-26T13:42:34.993Z,68.20
2019-06-26T13:45:01.046Z,69.20
2019-06-26T13:47:27.105Z,70.00
2019-06-26T13:49:53.211Z,69.10
2019-06-26T13:52:19.263Z,69.90
2019-06-26T13:54:45.424Z,69.80
2019-06-26T13:57:11.545Z,70.20
2019-06-26T13:59:37.701Z,69.60
2019-06-26T14:02:03.789Z,69.60
2019-06-26T14:04:29.886Z,69.60
2019-06-26T14:06:55.935Z,69.00
2019-06-26T14:09:21.992Z,69.80
2019-06-26T14:11:48.048Z,69.40
2019-06-26T14:14:14.114Z,69.00
2019-06-26T14:16:40.577Z,69.20
2019-06-26T14:19:06.971Z,69.10
2019-06-26T14:21:33.052Z,69.20
2019-06-26T14:23:59.191Z,70.40
2019-06-26T14:26:25.240Z,70.40
2019-06-26T14:28:53.876Z,72.10
2019-06-26T14:31:19.294Z,69.20
2019-06-26T14:33:45.430Z,69.20
2019-06-26T14:36:11.507Z,69.10
2019-06-26T14:38:37.574Z,69.40
2019-06-26T14:41:03.865Z,69.90
2019-06-26T14:43:29.979Z,70.20
2019-06-26T14:45:56.043Z,69.40
2019-06-26T14:48:22.128Z,69.60
2019-06-26T14:50:48.311Z,69.60
2019-06-26T14:53:14.422Z,70.80
2019-06-26T14:55:40.476Z,70.80
2019-06-26T14:58:06.651Z,70.30
2019-06-26T15:00:32.738Z,69.90
2019-06-26T15:02:58.887Z,70.60
2019-06-26T15:05:25.071Z,71.00
2019-06-26T15:07:51.216Z,69.90
2019-06-26T15:10:17.467Z,70.00
2019-06-26T15:12:43.512Z,68.70
2019-06-26T15:15:09.788Z,69.60
2019-06-26T15:17:35.873Z,70.60
2019-06-26T15:20:03.804Z,70.50
2019-06-26T15:22:29.982Z,70.80
2019-06-26T15:24:56.191Z,71.70
2019-06-26T15:27:22.272Z,70.50
2019-06-26T15:29:48.336Z,71.30
2019-06-26T15:32:14.443Z,71.00
2019-06-26T15:34:40.621Z,70.80
2019-06-26T15:37:06.776Z,71.30
2019-06-26T15:39:32.839Z,71.50
2019-06-26T15:41:58.926Z,72.40
2019-06-26T15:44:25.108Z,72.10
2019-06-26T15:46:51.281Z,72.70
2019-06-26T15:49:17.477Z,72.80
2019-06-26T15:51:43.580Z,74.10
2019-06-26T15:54:09.697Z,74.20
2019-06-26T15:56:35.835Z,73.70
2019-06-26T15:59:01.899Z,74.00
2019-06-26T16:01:27.952Z,73.40
2019-06-26T16:03:54.016Z,72.90
2019-06-26T16:06:20.072Z,73.60
2019-06-26T16:08:46.180Z,74.30
2019-06-26T16:11:12.231Z,73.70
2019-06-26T16:13:38.283Z,73.50
2019-06-26T16:16:04.448Z,73.60
2019-06-26T16:18:35.132Z,73.40
2019-06-26T16:21:01.205Z,72.60
2019-06-26T16:23:27.268Z,72.70
2019-06-26T16:25:53.545Z,73.40
2019-06-26T16:28:19.679Z,72.20
2019-06-26T16:30:45.769Z,73.00
2019-06-26T16:33:11.930Z,72.50
2019-06-26T16:35:38.045Z,72.20
2019-06-26T16:38:04.181Z,72.70
2019-06-26T16:40:30.228Z,72.80
2019-06-26T16:42:56.283Z,72.90
2019-06-26T16:45:22.345Z,72.50
2019-06-26T16:47:48.396Z,71.60
2019-06-26T16:50:14.663Z,72.00
2019-06-26T16:52:49.207Z,72.00
2019-06-26T16:55:09.024Z,71.70
2019-06-26T16:57:35.093Z,72.60
2019-06-26T17:00:09.695Z,72.70
2019-06-26T17:02:29.225Z,72.90
2019-06-26T17:04:55.375Z,72.80
2019-06-26T17:07:21.536Z,73.00
2019-06-26T17:09:47.688Z,73.00
2019-06-26T17:12:13.740Z,73.80
2019-06-26T17:14:39.870Z,73.80
2019-06-26T17:17:06.038Z,72.90
2019-06-26T17:19:32.135Z,72.80
2019-06-26T17:21:58.321Z,72.70
2019-06-26T17:24:24.473Z,72.00
2019-06-26T17:26:50.580Z,72.50
2019-06-26T17:29:16.640Z,73.60
2019-06-26T17:31:42.704Z,74.10
2019-06-26T17:34:08.806Z,74.40
2019-06-26T17:36:35.016Z,74.30
2019-06-26T17:39:01.072Z,74.70
2019-06-26T17:41:27.127Z,75.10
2019-06-26T17:43:53.215Z,74.00
2019-06-26T17:46:19.336Z,72.90
2019-06-26T17:48:45.399Z,73.40
2019-06-26T17:51:11.452Z,74.00
2019-06-26T17:53:37.536Z,72.60
2019-06-26T17:56:03.678Z,70.70
2019-06-26T17:58:29.839Z,72.30
2019-06-26T18:00:55.912Z,72.30
2019-06-26T18:03:21.969Z,72.20
2019-06-26T18:05:48.187Z,70.50
2019-06-26T18:08:14.327Z,71.70
2019-06-26T18:10:40.486Z,72.80
2019-06-26T18:13:06.867Z,70.50
2019-06-26T18:15:33.028Z,71.70
2019-06-26T18:17:59.132Z,72.80
2019-06-26T18:20:25.409Z,73.40
2019-06-26T18:23:05.796Z,74.30
2019-06-26T18:25:19.541Z,75.00
2019-06-26T18:27:45.734Z,75.20
2019-06-26T18:30:12.291Z,75.70
2019-06-26T18:32:38.576Z,76.20
2019-06-26T18:35:05.199Z,75.90
2019-06-26T18:37:31.324Z,76.60
2019-06-26T18:39:57.415Z,76.70
2019-06-26T18:42:23.492Z,77.20
2019-06-26T18:44:49.651Z,77.80
2019-06-26T18:47:15.825Z,77.90
2019-06-26T18:49:41.923Z,78.20
2019-06-26T18:52:08.070Z,78.00
2019-06-26T18:54:34.415Z,78.10
2019-06-26T18:57:00.537Z,77.90
2019-06-26T18:59:26.735Z,77.60
2019-06-26T19:01:52.824Z,77.50
2019-06-26T19:04:19.128Z,77.50
2019-06-26T19:06:45.295Z,77.60
2019-06-26T19:09:11.360Z,77.50
2019-06-26T19:11:37.424Z,77.70
2019-06-26T19:14:03.499Z,78.00
2019-06-26T19:16:29.647Z,78.20
2019-06-26T19:18:55.900Z,78.10
2019-06-26T19:21:22.021Z,78.40
2019-06-26T19:23:48.342Z,78.80
2019-06-26T19:26:14.468Z,79.10
2019-06-26T19:28:40.611Z,79.40
2019-06-26T19:31:06.683Z,79.90
2019-06-26T19:33:32.756Z,80.20
2019-06-26T19:35:59.417Z,80.30
2019-06-26T19:38:25.571Z,80.50
2019-06-26T19:40:51.624Z,80.40
2019-06-26T19:43:17.694Z,81.20
2019-06-26T19:45:43.882Z,80.50
2019-06-26T19:48:10.085Z,80.80
2019-06-26T19:50:36.140Z,81.40
2019-06-26T19:53:02.220Z,80.70
2019-06-26T19:55:29.280Z,81.10
2019-06-26T19:57:55.517Z,81.40
2019-06-26T20:00:21.571Z,81.60
2019-06-26T20:02:47.625Z,81.70
2019-06-26T20:05:13.876Z,81.50
2019-06-26T20:07:39.937Z,81.30
2019-06-26T20:10:07.105Z,81.40
2019-06-26T20:12:33.250Z,81.70
2019-06-26T20:14:59.412Z,82.10
2019-06-26T20:17:25.487Z,82.40
2019-06-26T20:19:51.656Z,82.70
2019-06-26T20:22:17.712Z,82.70
2019-06-26T20:24:44.897Z,83.50
2019-06-26T20:27:11.244Z,82.90
2019-06-26T20:29:37.295Z,82.80
2019-06-26T20:32:03.433Z,82.40
2019-06-26T20:34:29.602Z,82.30
2019-06-26T20:36:55.781Z,82.20
2019-06-26T20:39:21.947Z,82.20
2019-06-26T20:41:48.135Z,82.20
2019-06-26T20:44:14.319Z,82.30
2019-06-26T20:46:40.446Z,82.50
2019-06-26T20:49:06.619Z,83.90
2019-06-26T20:51:32.677Z,84.20
2019-06-26T20:53:58.723Z,84.00
2019-06-26T20:56:25.857Z,84.20
2019-06-26T20:58:52.157Z,84.10
2019-06-26T21:01:18.303Z,83.90
2019-06-26T21:03:44.382Z,84.00
2019-06-26T21:06:10.565Z,83.80
2019-06-26T21:08:36.728Z,83.70
2019-06-26T21:11:02.941Z,83.30
2019-06-26T21:13:29.396Z,82.80
2019-06-26T21:15:55.706Z,82.60
2019-06-26T21:18:21.812Z,82.60
2019-06-26T21:20:47.906Z,82.70
2019-06-26T21:23:18.911Z,82.20
2019-06-26T21:25:41.972Z,82.50
2019-06-26T21:28:08.023Z,82.20
2019-06-26T21:30:34.210Z,82.40
2019-06-26T21:33:00.514Z,82.50
2019-06-26T21:35:26.705Z,82.60
2019-06-26T21:37:52.860Z,82.60
2019-06-26T21:40:18.942Z,82.20
2019-06-26T21:42:59.676Z,82.40
2019-06-26T21:45:25.756Z,82.40
2019-06-26T21:47:51.827Z,82.70
2019-06-26T21:50:17.980Z,83.30
2019-06-26T21:52:44.042Z,83.40
2019-06-26T21:55:10.293Z,84.00
2019-06-26T21:57:36.374Z,84.20
2019-06-26T22:00:04.876Z,84.40
2019-06-26T22:02:30.931Z,85.00
2019-06-26T22:04:57.192Z,85.20
2019-06-26T22:07:23.755Z,85.40
2019-06-26T22:09:49.813Z,85.60
2019-06-26T22:12:15.877Z,85.60
2019-06-26T22:14:41.936Z,85.60
2019-06-26T22:17:07.996Z,85.70
2019-06-26T22:19:34.116Z,85.80
2019-06-26T22:22:00.269Z,86.00
2019-06-26T22:24:26.323Z,86.40
2019-06-26T22:26:52.406Z,86.50
2019-06-26T22:29:18.459Z,86.80
2019-06-26T22:31:44.546Z,86.90
2019-06-26T22:34:10.792Z,87.00
2019-06-26T22:36:36.875Z,87.00
2019-06-26T22:39:04.531Z,87.50
2019-06-26T22:41:30.589Z,86.20
2019-06-26T22:43:56.799Z,86.10
2019-06-26T22:46:22.887Z,85.50
2019-06-26T22:48:49.508Z,85.30
2019-06-26T22:51:15.566Z,84.90
2019-06-26T22:53:41.612Z,84.70
2019-06-26T22:58:34.652Z,83.40
2019-06-26T23:01:00.701Z,84.20
2019-06-26T23:03:26.955Z,84.30
2019-06-26T23:05:53.021Z,84.20
2019-06-26T23:08:19.080Z,84.10
2019-06-26T23:10:45.242Z,83.90
2019-06-26T23:13:11.301Z,83.60
2019-06-26T23:15:37.772Z,83.60
2019-06-26T23:18:03.840Z,83.70
2019-06-26T23:20:29.989Z,83.70
2019-06-26T23:22:56.084Z,84.00
2019-06-26T23:25:22.227Z,84.10
2019-06-26T23:27:48.412Z,84.10
2019-06-26T23:30:18.216Z,84.20
2019-06-26T23:32:44.496Z,84.30
2019-06-26T23:35:12.052Z,84.10
2019-06-26T23:37:38.108Z,83.80
2019-06-26T23:40:04.491Z,84.00
2019-06-26T23:42:30.547Z,83.90
2019-06-26T23:44:56.615Z,83.80
2019-06-26T23:47:22.668Z,81.40
2019-06-26T23:49:48.724Z,81.00
2019-06-26T23:52:14.776Z,80.70
2019-06-26T23:54:40.832Z,81.10
2019-06-26T23:57:06.887Z,81.40
2019-06-26T23:59:32.952Z,81.70
